sensor_id;sensor_type;location;lat;lon;timestamp;pressure;altitude;pressure_sealevel;temperature;humidity
13695;BME280;6919;52.344;14.518;2023-07-24T00:00:05;99849.56;;;19.66;100.00
13695;BME280;6919;52.344;14.518;2023-07-24T00:02:33;99838.97;;;19.76;100.00
13695;BME280;6919;52.344;14.518;2023-07-24T00:05:04;99836.34;;;19.81;100.00
13695;BME280;6919;52.344;14.518;2023-07-24T00:07:32;99830.91;;;19.81;100.00
13695;BME280;6919;52.344;14.518;2023-07-24T00:10:00;99823.59;;;19.81;100.00
13695;BME280;6919;52.344;14.518;2023-07-24T00:12:29;99825.59;;;19.86;100.00
13695;BME280;6919;52.344;14.518;2023-07-24T00:14:57;99818.03;;;19.88;100.00
13695;BME280;6919;52.344;14.518;2023-07-24T00:17:26;99827.63;;;19.90;100.00
13695;BME280;6919;52.344;14.518;2023-07-24T00:19:54;99825.88;;;19.96;100.00
13695;BME280;6919;52.344;14.518;2023-07-24T00:22:24;99818.44;;;19.91;100.00
13695;BME280;6919;52.344;14.518;2023-07-24T00:24:52;99818.16;;;19.93;100.00
13695;BME280;6919;52.344;14.518;2023-07-24T00:27:20;99815.31;;;19.88;100.00
13695;BME280;6919;52.344;14.518;2023-07-24T00:29:49;99816.06;;;19.95;100.00
13695;BME280;6919;52.344;14.518;2023-07-24T00:32:17;99812.13;;;19.91;100.00
13695;BME280;6919;52.344;14.518;2023-07-24T00:34:45;99805.41;;;19.93;100.00
13695;BME280;6919;52.344;14.518;2023-07-24T00:37:13;99805.03;;;19.90;100.00
13695;BME280;6919;52.344;14.518;2023-07-24T00:39:43;99793.06;;;19.79;100.00
13695;BME280;6919;52.344;14.518;2023-07-24T00:42:11;99802.53;;;19.77;100.00
13695;BME280;6919;52.344;14.518;2023-07-24T00:44:40;99801.00;;;19.81;100.00
13695;BME280;6919;52.344;14.518;2023-07-24T00:47:10;99796.00;;;19.78;100.00
13695;BME280;6919;52.344;14.518;2023-07-24T00:49:38;99786.06;;;19.72;100.00
13695;BME280;6919;52.344;14.518;2023-07-24T00:52:08;99780.50;;;19.67;100.00
13695;BME280;6919;52.344;14.518;2023-07-24T00:54:37;99792.91;;;19.63;100.00
13695;BME280;6919;52.344;14.518;2023-07-24T00:57:08;99777.66;;;19.62;100.00
13695;BME280;6919;52.344;14.518;2023-07-24T00:59:37;99782.47;;;19.60;100.00
13695;BME280;6919;52.344;14.518;2023-07-24T01:02:06;99783.31;;;19.60;100.00
13695;BME280;6919;52.344;14.518;2023-07-24T01:04:34;99772.34;;;19.67;100.00
13695;BME280;6919;52.344;14.518;2023-07-24T01:07:03;99780.63;;;19.72;100.00
13695;BME280;6919;52.344;14.518;2023-07-24T01:09:32;99775.09;;;19.78;100.00
13695;BME280;6919;52.344;14.518;2023-07-24T01:12:10;99769.16;;;19.70;100.00
13695;BME280;6919;52.344;14.518;2023-07-24T01:14:47;99765.63;;;19.81;100.00
13695;BME280;6919;52.344;14.518;2023-07-24T01:17:23;99749.91;;;19.83;100.00
13695;BME280;6919;52.344;14.518;2023-07-24T01:19:55;99748.84;;;19.84;100.00
13695;BME280;6919;52.344;14.518;2023-07-24T01:22:38;99761.25;;;19.80;100.00
13695;BME280;6919;52.344;14.518;2023-07-24T01:25:18;99755.66;;;19.63;100.00
13695;BME280;6919;52.344;14.518;2023-07-24T01:27:52;99746.66;;;19.63;100.00
13695;BME280;6919;52.344;14.518;2023-07-24T01:30:21;99742.84;;;19.41;100.00
13695;BME280;6919;52.344;14.518;2023-07-24T01:32:49;99744.94;;;19.39;100.00
13695;BME280;6919;52.344;14.518;2023-07-24T01:35:18;99750.03;;;19.47;100.00
13695;BME280;6919;52.344;14.518;2023-07-24T01:37:48;99742.84;;;19.41;100.00
13695;BME280;6919;52.344;14.518;2023-07-24T01:40:17;99742.94;;;19.46;100.00
13695;BME280;6919;52.344;14.518;2023-07-24T01:42:46;99742.66;;;19.65;100.00
13695;BME280;6919;52.344;14.518;2023-07-24T01:45:15;99729.25;;;19.52;100.00
13695;BME280;6919;52.344;14.518;2023-07-24T01:47:44;99727.09;;;19.43;100.00
13695;BME280;6919;52.344;14.518;2023-07-24T01:50:12;99726.06;;;19.55;100.00
13695;BME280;6919;52.344;14.518;2023-07-24T01:52:40;99715.34;;;19.60;100.00
13695;BME280;6919;52.344;14.518;2023-07-24T01:55:09;99718.41;;;19.64;100.00
13695;BME280;6919;52.344;14.518;2023-07-24T01:57:37;99720.22;;;19.81;100.00
13695;BME280;6919;52.344;14.518;2023-07-24T02:00:07;99719.25;;;19.76;100.00
13695;BME280;6919;52.344;14.518;2023-07-24T02:02:37;99716.91;;;19.91;100.00
13695;BME280;6919;52.344;14.518;2023-07-24T02:05:06;99708.59;;;19.86;100.00
13695;BME280;6919;52.344;14.518;2023-07-24T02:07:34;99706.13;;;19.96;100.00
13695;BME280;6919;52.344;14.518;2023-07-24T02:10:03;99708.53;;;20.04;100.00
13695;BME280;6919;52.344;14.518;2023-07-24T02:12:31;99705.91;;;20.09;100.00
13695;BME280;6919;52.344;14.518;2023-07-24T02:15:00;99704.72;;;20.28;100.00
13695;BME280;6919;52.344;14.518;2023-07-24T02:17:29;99704.16;;;20.26;100.00
13695;BME280;6919;52.344;14.518;2023-07-24T02:19:59;99705.91;;;20.32;100.00
13695;BME280;6919;52.344;14.518;2023-07-24T02:22:27;99705.56;;;20.29;100.00
13695;BME280;6919;52.344;14.518;2023-07-24T02:24:55;99705.09;;;20.32;100.00
13695;BME280;6919;52.344;14.518;2023-07-24T02:27:28;99703.88;;;20.39;100.00
13695;BME280;6919;52.344;14.518;2023-07-24T02:29:58;99703.06;;;20.39;100.00
13695;BME280;6919;52.344;14.518;2023-07-24T02:32:26;99704.84;;;20.33;100.00
13695;BME280;6919;52.344;14.518;2023-07-24T02:34:55;99705.09;;;20.32;100.00
13695;BME280;6919;52.344;14.518;2023-07-24T02:37:25;99706.97;;;20.43;100.00
13695;BME280;6919;52.344;14.518;2023-07-24T02:39:53;99720.50;;;20.38;100.00
13695;BME280;6919;52.344;14.518;2023-07-24T02:42:22;99718.56;;;20.38;100.00
13695;BME280;6919;52.344;14.518;2023-07-24T02:44:50;99719.03;;;20.35;100.00
13695;BME280;6919;52.344;14.518;2023-07-24T02:47:20;99733.63;;;20.17;100.00
13695;BME280;6919;52.344;14.518;2023-07-24T02:49:48;99729.38;;;20.33;100.00
13695;BME280;6919;52.344;14.518;2023-07-24T02:52:16;99730.06;;;20.17;100.00
13695;BME280;6919;52.344;14.518;2023-07-24T02:54:46;99722.47;;;20.07;100.00
13695;BME280;6919;52.344;14.518;2023-07-24T02:57:14;99719.66;;;20.14;100.00
13695;BME280;6919;52.344;14.518;2023-07-24T02:59:42;99723.91;;;20.22;100.00
13695;BME280;6919;52.344;14.518;2023-07-24T03:02:11;99722.38;;;20.26;100.00
13695;BME280;6919;52.344;14.518;2023-07-24T03:04:39;99717.53;;;20.16;100.00
13695;BME280;6919;52.344;14.518;2023-07-24T03:07:07;99723.88;;;20.10;100.00
13695;BME280;6919;52.344;14.518;2023-07-24T03:09:36;99723.06;;;20.21;100.00
13695;BME280;6919;52.344;14.518;2023-07-24T03:12:06;99723.06;;;20.09;100.00
13695;BME280;6919;52.344;14.518;2023-07-24T03:14:34;99719.97;;;20.06;100.00
13695;BME280;6919;52.344;14.518;2023-07-24T03:17:03;99728.75;;;20.08;100.00
13695;BME280;6919;52.344;14.518;2023-07-24T03:19:32;99727.25;;;20.12;100.00
13695;BME280;6919;52.344;14.518;2023-07-24T03:22:00;99724.16;;;20.20;100.00
13695;BME280;6919;52.344;14.518;2023-07-24T03:24:28;99724.53;;;20.24;100.00
13695;BME280;6919;52.344;14.518;2023-07-24T03:26:56;99723.31;;;20.19;100.00
13695;BME280;6919;52.344;14.518;2023-07-24T03:29:26;99735.75;;;20.27;100.00
13695;BME280;6919;52.344;14.518;2023-07-24T03:31:55;99725.34;;;20.24;100.00
13695;BME280;6919;52.344;14.518;2023-07-24T03:34:23;99730.78;;;20.24;100.00
13695;BME280;6919;52.344;14.518;2023-07-24T03:36:51;99725.56;;;20.23;100.00
13695;BME280;6919;52.344;14.518;2023-07-24T03:39:19;99725.81;;;20.33;100.00
13695;BME280;6919;52.344;14.518;2023-07-24T03:41:48;99727.91;;;20.42;100.00
13695;BME280;6919;52.344;14.518;2023-07-24T03:44:16;99721.44;;;20.43;100.00
13695;BME280;6919;52.344;14.518;2023-07-24T03:46:46;99735.94;;;20.60;100.00
13695;BME280;6919;52.344;14.518;2023-07-24T03:49:14;99728.84;;;20.48;100.00
13695;BME280;6919;52.344;14.518;2023-07-24T03:51:42;99732.75;;;20.63;100.00
13695;BME280;6919;52.344;14.518;2023-07-24T03:54:11;99730.06;;;20.52;100.00
13695;BME280;6919;52.344;14.518;2023-07-24T03:56:39;99727.28;;;20.63;100.00
13695;BME280;6919;52.344;14.518;2023-07-24T03:59:07;99735.13;;;20.60;100.00
13695;BME280;6919;52.344;14.518;2023-07-24T04:01:35;99731.41;;;20.77;100.00
13695;BME280;6919;52.344;14.518;2023-07-24T04:04:05;99729.28;;;20.79;100.00
13695;BME280;6919;52.344;14.518;2023-07-24T04:06:33;99738.03;;;20.81;100.00
13695;BME280;6919;52.344;14.518;2023-07-24T04:09:02;99736.16;;;20.70;100.00
13695;BME280;6919;52.344;14.518;2023-07-24T04:11:30;99733.09;;;20.78;100.00
13695;BME280;6919;52.344;14.518;2023-07-24T04:13:59;99737.31;;;20.86;100.00
13695;BME280;6919;52.344;14.518;2023-07-24T04:16:27;99732.00;;;20.79;100.00
13695;BME280;6919;52.344;14.518;2023-07-24T04:18:55;99740.97;;;20.91;100.00
13695;BME280;6919;52.344;14.518;2023-07-24T04:21:25;99739.06;;;20.92;100.00
13695;BME280;6919;52.344;14.518;2023-07-24T04:23:53;99736.22;;;20.98;100.00
13695;BME280;6919;52.344;14.518;2023-07-24T04:26:22;99739.69;;;20.94;100.00
13695;BME280;6919;52.344;14.518;2023-07-24T04:28:50;99732.34;;;20.94;100.00
13695;BME280;6919;52.344;14.518;2023-07-24T04:31:18;99745.47;;;20.86;100.00
13695;BME280;6919;52.344;14.518;2023-07-24T04:33:46;99742.28;;;21.00;100.00
13695;BME280;6919;52.344;14.518;2023-07-24T04:36:15;99746.78;;;20.83;100.00
13695;BME280;6919;52.344;14.518;2023-07-24T04:38:45;99746.22;;;20.93;100.00
13695;BME280;6919;52.344;14.518;2023-07-24T04:41:14;99743.34;;;20.88;100.00
13695;BME280;6919;52.344;14.518;2023-07-24T04:43:43;99751.28;;;20.89;100.00
13695;BME280;6919;52.344;14.518;2023-07-24T04:46:11;99754.75;;;20.96;100.00
13695;BME280;6919;52.344;14.518;2023-07-24T04:48:39;99752.56;;;20.87;100.00
13695;BME280;6919;52.344;14.518;2023-07-24T04:51:07;99740.28;;;20.96;100.00
13695;BME280;6919;52.344;14.518;2023-07-24T04:53:37;99744.53;;;21.03;100.00
13695;BME280;6919;52.344;14.518;2023-07-24T04:56:06;99745.09;;;21.05;100.00
13695;BME280;6919;52.344;14.518;2023-07-24T04:58:35;99731.75;;;21.20;100.00
13695;BME280;6919;52.344;14.518;2023-07-24T05:01:04;99729.28;;;21.19;100.00
13695;BME280;6919;52.344;14.518;2023-07-24T05:03:33;99725.97;;;21.17;100.00
13695;BME280;6919;52.344;14.518;2023-07-24T05:06:01;99729.94;;;21.26;100.00
13695;BME280;6919;52.344;14.518;2023-07-24T05:08:30;99731.63;;;21.27;100.00
13695;BME280;6919;52.344;14.518;2023-07-24T05:10:59;99737.66;;;21.29;100.00
13695;BME280;6919;52.344;14.518;2023-07-24T05:13:29;99734.34;;;21.27;100.00
13695;BME280;6919;52.344;14.518;2023-07-24T05:15:57;99730.22;;;21.24;100.00
13695;BME280;6919;52.344;14.518;2023-07-24T05:18:25;99724.78;;;21.41;100.00
13695;BME280;6919;52.344;14.518;2023-07-24T05:20:54;99723.25;;;21.61;100.00
13695;BME280;6919;52.344;14.518;2023-07-24T05:23:22;99717.88;;;21.66;100.00
13695;BME280;6919;52.344;14.518;2023-07-24T05:25:57;99706.16;;;21.66;100.00
13695;BME280;6919;52.344;14.518;2023-07-24T05:28:28;99702.78;;;21.75;100.00
13695;BME280;6919;52.344;14.518;2023-07-24T05:31:00;99694.56;;;22.08;100.00
13695;BME280;6919;52.344;14.518;2023-07-24T05:33:29;99695.97;;;21.94;100.00
13695;BME280;6919;52.344;14.518;2023-07-24T05:35:58;99695.00;;;22.00;100.00
13695;BME280;6919;52.344;14.518;2023-07-24T05:38:27;99697.75;;;21.84;100.00
13695;BME280;6919;52.344;14.518;2023-07-24T05:40:56;99690.03;;;21.97;100.00
13695;BME280;6919;52.344;14.518;2023-07-24T05:43:29;99686.28;;;22.58;100.00
13695;BME280;6919;52.344;14.518;2023-07-24T05:45:59;99687.69;;;22.60;100.00
13695;BME280;6919;52.344;14.518;2023-07-24T05:48:27;99685.34;;;23.17;100.00
13695;BME280;6919;52.344;14.518;2023-07-24T05:50:56;99678.22;;;23.16;100.00
13695;BME280;6919;52.344;14.518;2023-07-24T05:53:24;99675.41;;;22.84;100.00
13695;BME280;6919;52.344;14.518;2023-07-24T05:55:59;99669.13;;;23.11;100.00
13695;BME280;6919;52.344;14.518;2023-07-24T05:58:29;99668.88;;;23.12;100.00
13695;BME280;6919;52.344;14.518;2023-07-24T06:00:58;99657.22;;;23.48;100.00
13695;BME280;6919;52.344;14.518;2023-07-24T06:03:26;99663.16;;;23.40;100.00
13695;BME280;6919;52.344;14.518;2023-07-24T06:05:55;99660.31;;;23.04;100.00
13695;BME280;6919;52.344;14.518;2023-07-24T06:08:24;99658.66;;;23.03;100.00
13695;BME280;6919;52.344;14.518;2023-07-24T06:10:52;99670.25;;;23.36;100.00
13695;BME280;6919;52.344;14.518;2023-07-24T06:13:20;99662.78;;;23.27;100.00
13695;BME280;6919;52.344;14.518;2023-07-24T06:15:51;99665.91;;;23.40;100.00
13695;BME280;6919;52.344;14.518;2023-07-24T06:18:20;99662.25;;;23.30;100.00
13695;BME280;6919;52.344;14.518;2023-07-24T06:20:52;99664.09;;;23.51;100.00
13695;BME280;6919;52.344;14.518;2023-07-24T06:23:21;99663.53;;;23.85;100.00
13695;BME280;6919;52.344;14.518;2023-07-24T06:25:49;99667.53;;;24.04;100.00
13695;BME280;6919;52.344;14.518;2023-07-24T06:28:18;99660.81;;;24.22;100.00
13695;BME280;6919;52.344;14.518;2023-07-24T06:30:47;99668.38;;;24.10;100.00
13695;BME280;6919;52.344;14.518;2023-07-24T06:33:16;99656.25;;;23.64;100.00
13695;BME280;6919;52.344;14.518;2023-07-24T06:35:45;99659.69;;;23.81;100.00
13695;BME280;6919;52.344;14.518;2023-07-24T06:38:13;99661.16;;;23.94;100.00
13695;BME280;6919;52.344;14.518;2023-07-24T06:40:41;99656.78;;;24.39;100.00
13695;BME280;6919;52.344;14.518;2023-07-24T06:43:09;99660.09;;;24.46;100.00
13695;BME280;6919;52.344;14.518;2023-07-24T06:45:38;99652.53;;;24.17;100.00
13695;BME280;6919;52.344;14.518;2023-07-24T06:48:06;99652.59;;;24.27;100.00
13695;BME280;6919;52.344;14.518;2023-07-24T06:50:36;99643.72;;;24.10;100.00
13695;BME280;6919;52.344;14.518;2023-07-24T06:53:04;99648.03;;;24.42;100.00
13695;BME280;6919;52.344;14.518;2023-07-24T06:55:32;99655.06;;;24.80;100.00
13695;BME280;6919;52.344;14.518;2023-07-24T06:58:00;99651.69;;;24.63;100.00
13695;BME280;6919;52.344;14.518;2023-07-24T07:00:29;99649.53;;;24.65;100.00
13695;BME280;6919;52.344;14.518;2023-07-24T07:02:57;99638.34;;;24.81;99.87
13695;BME280;6919;52.344;14.518;2023-07-24T07:05:25;99637.78;;;24.79;98.45
13695;BME280;6919;52.344;14.518;2023-07-24T07:07:55;99644.66;;;24.87;98.08
13695;BME280;6919;52.344;14.518;2023-07-24T07:10:23;99639.41;;;24.75;98.45
13695;BME280;6919;52.344;14.518;2023-07-24T07:12:52;99632.09;;;24.34;100.00
13695;BME280;6919;52.344;14.518;2023-07-24T07:15:20;99633.22;;;24.43;100.00
13695;BME280;6919;52.344;14.518;2023-07-24T07:17:48;99629.69;;;24.43;98.86
13695;BME280;6919;52.344;14.518;2023-07-24T07:20:17;99632.22;;;24.59;97.52
13695;BME280;6919;52.344;14.518;2023-07-24T07:22:45;99635.09;;;24.33;97.10
13695;BME280;6919;52.344;14.518;2023-07-24T07:25:15;99626.09;;;24.37;99.80
13695;BME280;6919;52.344;14.518;2023-07-24T07:27:43;99631.44;;;24.69;99.70
13695;BME280;6919;52.344;14.518;2023-07-24T07:30:12;99628.00;;;24.37;97.75
13695;BME280;6919;52.344;14.518;2023-07-24T07:32:40;99635.16;;;24.48;98.70
13695;BME280;6919;52.344;14.518;2023-07-24T07:35:08;99623.50;;;24.11;99.28
13695;BME280;6919;52.344;14.518;2023-07-24T07:37:37;99621.66;;;24.31;99.47
13695;BME280;6919;52.344;14.518;2023-07-24T07:40:07;99612.16;;;24.49;95.23
13695;BME280;6919;52.344;14.518;2023-07-24T07:42:36;99615.94;;;24.33;96.56
13695;BME280;6919;52.344;14.518;2023-07-24T07:45:07;99608.91;;;24.57;93.32
13695;BME280;6919;52.344;14.518;2023-07-24T07:47:36;99616.81;;;24.53;91.68
13695;BME280;6919;52.344;14.518;2023-07-24T07:50:05;99627.91;;;24.78;91.01
13695;BME280;6919;52.344;14.518;2023-07-24T07:52:33;99632.59;;;24.78;90.76
13695;BME280;6919;52.344;14.518;2023-07-24T07:55:02;99629.53;;;24.69;89.83
13695;BME280;6919;52.344;14.518;2023-07-24T07:57:36;99631.50;;;24.84;89.12
13695;BME280;6919;52.344;14.518;2023-07-24T08:00:06;99635.28;;;24.73;86.91
13695;BME280;6919;52.344;14.518;2023-07-24T08:02:35;99622.63;;;24.62;86.20
13695;BME280;6919;52.344;14.518;2023-07-24T08:05:07;99631.22;;;24.80;86.18
13695;BME280;6919;52.344;14.518;2023-07-24T08:07:46;99635.63;;;24.91;85.51
13695;BME280;6919;52.344;14.518;2023-07-24T08:10:14;99629.38;;;25.16;81.83
13695;BME280;6919;52.344;14.518;2023-07-24T08:12:45;99618.94;;;25.13;78.58
13695;BME280;6919;52.344;14.518;2023-07-24T08:15:13;99616.44;;;24.96;81.81
13695;BME280;6919;52.344;14.518;2023-07-24T08:17:41;99619.53;;;25.50;81.94
13695;BME280;6919;52.344;14.518;2023-07-24T08:20:10;99616.22;;;25.88;77.16
13695;BME280;6919;52.344;14.518;2023-07-24T08:22:39;99618.44;;;25.81;75.93
13695;BME280;6919;52.344;14.518;2023-07-24T08:25:07;99620.34;;;25.81;75.12
13695;BME280;6919;52.344;14.518;2023-07-24T08:27:36;99615.41;;;25.73;77.05
13695;BME280;6919;52.344;14.518;2023-07-24T08:30:26;99606.59;;;26.06;77.15
13695;BME280;6919;52.344;14.518;2023-07-24T08:32:55;99594.81;;;26.69;74.58
13695;BME280;6919;52.344;14.518;2023-07-24T08:35:24;99594.06;;;27.02;70.15
13695;BME280;6919;52.344;14.518;2023-07-24T08:37:53;99586.94;;;26.42;67.83
13695;BME280;6919;52.344;14.518;2023-07-24T08:40:21;99578.59;;;25.84;70.36
13695;BME280;6919;52.344;14.518;2023-07-24T08:42:50;99590.97;;;25.71;71.41
13695;BME280;6919;52.344;14.518;2023-07-24T08:45:20;99586.50;;;26.15;70.61
13695;BME280;6919;52.344;14.518;2023-07-24T08:47:50;99588.13;;;26.21;70.58
13695;BME280;6919;52.344;14.518;2023-07-24T08:50:20;99579.56;;;26.33;68.27
13695;BME280;6919;52.344;14.518;2023-07-24T08:52:48;99581.50;;;26.32;69.33
13695;BME280;6919;52.344;14.518;2023-07-24T08:55:17;99577.44;;;26.78;69.74
13695;BME280;6919;52.344;14.518;2023-07-24T08:57:46;99582.31;;;26.91;66.26
13695;BME280;6919;52.344;14.518;2023-07-24T09:00:16;99580.25;;;26.68;64.71
13695;BME280;6919;52.344;14.518;2023-07-24T09:02:44;99580.44;;;26.23;69.17
13695;BME280;6919;52.344;14.518;2023-07-24T09:05:14;99582.97;;;26.00;69.72
13695;BME280;6919;52.344;14.518;2023-07-24T09:07:45;99568.56;;;26.33;70.09
13695;BME280;6919;52.344;14.518;2023-07-24T09:10:14;99561.03;;;26.63;68.08
13695;BME280;6919;52.344;14.518;2023-07-24T09:12:42;99567.44;;;26.97;63.66
13695;BME280;6919;52.344;14.518;2023-07-24T09:15:11;99572.44;;;26.85;64.75
13695;BME280;6919;52.344;14.518;2023-07-24T09:17:48;99576.91;;;27.15;62.89
13695;BME280;6919;52.344;14.518;2023-07-24T09:20:20;99564.34;;;27.04;61.71
13695;BME280;6919;52.344;14.518;2023-07-24T09:22:52;99562.50;;;26.89;61.53
13695;BME280;6919;52.344;14.518;2023-07-24T09:25:42;99564.00;;;27.10;62.53
13695;BME280;6919;52.344;14.518;2023-07-24T09:28:13;99564.72;;;27.59;60.32
13695;BME280;6919;52.344;14.518;2023-07-24T09:30:42;99562.31;;;26.76;59.36
13695;BME280;6919;52.344;14.518;2023-07-24T09:33:18;99543.31;;;26.79;59.66
13695;BME280;6919;52.344;14.518;2023-07-24T09:35:58;99551.47;;;26.94;60.77
13695;BME280;6919;52.344;14.518;2023-07-24T09:38:27;99552.03;;;27.35;59.50
13695;BME280;6919;52.344;14.518;2023-07-24T09:40:57;99548.50;;;27.29;58.53
13695;BME280;6919;52.344;14.518;2023-07-24T09:43:27;99542.56;;;27.41;57.52
13695;BME280;6919;52.344;14.518;2023-07-24T09:46:06;99542.75;;;27.21;55.65
13695;BME280;6919;52.344;14.518;2023-07-24T09:48:36;99541.50;;;27.42;55.59
13695;BME280;6919;52.344;14.518;2023-07-24T09:51:12;99546.09;;;27.46;55.16
13695;BME280;6919;52.344;14.518;2023-07-24T09:53:47;99544.03;;;27.62;53.73
13695;BME280;6919;52.344;14.518;2023-07-24T09:56:20;99543.81;;;27.82;52.84
13695;BME280;6919;52.344;14.518;2023-07-24T09:59:10;99548.56;;;27.48;52.59
13695;BME280;6919;52.344;14.518;2023-07-24T10:01:40;99519.00;;;27.30;52.69
13695;BME280;6919;52.344;14.518;2023-07-24T10:04:10;99538.50;;;27.67;53.56
13695;BME280;6919;52.344;14.518;2023-07-24T10:06:41;99528.75;;;28.03;52.66
13695;BME280;6919;52.344;14.518;2023-07-24T10:09:11;99523.88;;;27.95;50.56
13695;BME280;6919;52.344;14.518;2023-07-24T10:11:39;99536.69;;;28.28;48.65
13695;BME280;6919;52.344;14.518;2023-07-24T10:14:08;99534.47;;;28.30;48.63
13695;BME280;6919;52.344;14.518;2023-07-24T10:16:37;99535.34;;;28.26;49.20
13695;BME280;6919;52.344;14.518;2023-07-24T10:19:14;99538.06;;;27.83;47.96
13695;BME280;6919;52.344;14.518;2023-07-24T10:21:47;99521.28;;;27.18;49.76
13695;BME280;6919;52.344;14.518;2023-07-24T10:24:16;99537.47;;;27.58;49.96
13695;BME280;6919;52.344;14.518;2023-07-24T10:27:03;99518.50;;;27.80;48.97
13695;BME280;6919;52.344;14.518;2023-07-24T10:29:36;99511.38;;;28.02;48.04
13695;BME280;6919;52.344;14.518;2023-07-24T10:32:16;99515.66;;;27.90;48.68
13695;BME280;6919;52.344;14.518;2023-07-24T10:34:45;99515.06;;;27.64;48.70
13695;BME280;6919;52.344;14.518;2023-07-24T10:37:15;99500.34;;;28.02;49.14
13695;BME280;6919;52.344;14.518;2023-07-24T10:39:44;99501.22;;;28.22;47.68
13695;BME280;6919;52.344;14.518;2023-07-24T10:42:12;99492.72;;;27.71;47.84
13695;BME280;6919;52.344;14.518;2023-07-24T10:44:41;99497.34;;;27.75;47.88
13695;BME280;6919;52.344;14.518;2023-07-24T10:47:09;99491.91;;;28.18;47.12
13695;BME280;6919;52.344;14.518;2023-07-24T10:49:48;99483.59;;;28.60;46.38
13695;BME280;6919;52.344;14.518;2023-07-24T10:52:18;99475.59;;;28.95;45.29
13695;BME280;6919;52.344;14.518;2023-07-24T10:54:50;99460.06;;;28.99;44.47
13695;BME280;6919;52.344;14.518;2023-07-24T10:57:25;99467.06;;;29.10;45.07
13695;BME280;6919;52.344;14.518;2023-07-24T10:59:54;99459.13;;;29.68;44.73
13695;BME280;6919;52.344;14.518;2023-07-24T11:02:23;99466.81;;;29.84;43.41
13695;BME280;6919;52.344;14.518;2023-07-24T11:04:51;99462.72;;;30.22;41.86
13695;BME280;6919;52.344;14.518;2023-07-24T11:07:21;99458.84;;;29.24;42.40
13695;BME280;6919;52.344;14.518;2023-07-24T11:09:49;99444.81;;;28.70;43.51
13695;BME280;6919;52.344;14.518;2023-07-24T11:12:18;99452.75;;;28.58;43.37
13695;BME280;6919;52.344;14.518;2023-07-24T11:14:51;99439.16;;;28.43;43.38
13695;BME280;6919;52.344;14.518;2023-07-24T11:17:21;99433.28;;;28.49;43.29
13695;BME280;6919;52.344;14.518;2023-07-24T11:19:49;99434.66;;;28.84;43.60
13695;BME280;6919;52.344;14.518;2023-07-24T11:22:23;99419.19;;;29.47;41.79
13695;BME280;6919;52.344;14.518;2023-07-24T11:24:51;99415.81;;;29.50;42.37
13695;BME280;6919;52.344;14.518;2023-07-24T11:27:19;99421.41;;;29.45;42.41
13695;BME280;6919;52.344;14.518;2023-07-24T11:29:48;99409.22;;;29.32;43.00
13695;BME280;6919;52.344;14.518;2023-07-24T11:32:20;99408.06;;;29.79;42.08
13695;BME280;6919;52.344;14.518;2023-07-24T11:34:50;99412.88;;;30.36;41.41
13695;BME280;6919;52.344;14.518;2023-07-24T11:37:19;99408.72;;;29.98;40.64
13695;BME280;6919;52.344;14.518;2023-07-24T11:40:01;99411.13;;;29.77;40.47
13695;BME280;6919;52.344;14.518;2023-07-24T11:42:31;99406.06;;;30.06;40.34
13695;BME280;6919;52.344;14.518;2023-07-24T11:45:01;99401.13;;;30.52;39.15
13695;BME280;6919;52.344;14.518;2023-07-24T11:47:30;99414.25;;;31.05;38.47
13695;BME280;6919;52.344;14.518;2023-07-24T11:50:00;99398.28;;;30.80;38.10
13695;BME280;6919;52.344;14.518;2023-07-24T11:52:39;99385.69;;;30.74;38.59
13695;BME280;6919;52.344;14.518;2023-07-24T11:55:11;99376.47;;;31.09;38.02
13695;BME280;6919;52.344;14.518;2023-07-24T11:57:39;99372.16;;;30.50;37.75
13695;BME280;6919;52.344;14.518;2023-07-24T12:00:19;99378.97;;;30.44;38.54
13695;BME280;6919;52.344;14.518;2023-07-24T12:02:48;99377.63;;;30.06;38.15
13695;BME280;6919;52.344;14.518;2023-07-24T12:05:18;99365.75;;;29.92;38.44
13695;BME280;6919;52.344;14.518;2023-07-24T12:07:46;99363.63;;;29.62;38.89
13695;BME280;6919;52.344;14.518;2023-07-24T12:10:26;99363.78;;;29.92;39.39
13695;BME280;6919;52.344;14.518;2023-07-24T12:12:59;99380.06;;;30.21;38.95
13695;BME280;6919;52.344;14.518;2023-07-24T12:15:27;99374.16;;;30.58;38.81
13695;BME280;6919;52.344;14.518;2023-07-24T12:17:56;99370.59;;;30.57;38.01
13695;BME280;6919;52.344;14.518;2023-07-24T12:20:24;99369.56;;;29.55;38.84
13695;BME280;6919;52.344;14.518;2023-07-24T12:22:53;99362.28;;;29.86;39.15
13695;BME280;6919;52.344;14.518;2023-07-24T12:25:23;99367.63;;;30.54;38.71
13695;BME280;6919;52.344;14.518;2023-07-24T12:27:52;99365.78;;;30.27;38.86
13695;BME280;6919;52.344;14.518;2023-07-24T12:30:20;99364.69;;;30.50;38.32
13695;BME280;6919;52.344;14.518;2023-07-24T12:32:49;99352.84;;;30.36;38.28
13695;BME280;6919;52.344;14.518;2023-07-24T12:35:18;99362.53;;;30.92;37.71
13695;BME280;6919;52.344;14.518;2023-07-24T12:37:46;99359.38;;;30.85;37.05
13695;BME280;6919;52.344;14.518;2023-07-24T12:40:14;99357.59;;;30.80;37.16
13695;BME280;6919;52.344;14.518;2023-07-24T12:42:44;99341.41;;;30.74;37.78
13695;BME280;6919;52.344;14.518;2023-07-24T12:45:12;99337.25;;;31.15;37.67
13695;BME280;6919;52.344;14.518;2023-07-24T12:47:40;99327.84;;;31.25;37.07
13695;BME280;6919;52.344;14.518;2023-07-24T12:50:09;99334.81;;;30.83;37.78
13695;BME280;6919;52.344;14.518;2023-07-24T12:52:38;99330.22;;;30.56;37.92
13695;BME280;6919;52.344;14.518;2023-07-24T12:55:08;99325.06;;;31.25;37.22
13695;BME280;6919;52.344;14.518;2023-07-24T12:57:36;99313.97;;;31.64;36.08
13695;BME280;6919;52.344;14.518;2023-07-24T13:00:07;99304.50;;;31.17;36.49
13695;BME280;6919;52.344;14.518;2023-07-24T13:02:36;99294.56;;;31.16;37.00
13695;BME280;6919;52.344;14.518;2023-07-24T13:05:05;99300.91;;;31.64;36.33
13695;BME280;6919;52.344;14.518;2023-07-24T13:07:33;99285.66;;;32.09;35.77